createdAt,value
2022-07-27T00:00:21.245Z,0.50
2022-07-27T00:05:24.437Z,0.50
2022-07-27T00:10:27.114Z,0.50
2022-07-27T00:15:31.814Z,0.63
2022-07-27T00:20:34.682Z,0.90
2022-07-27T00:25:37.702Z,0.85
2022-07-27T00:30:41.884Z,0.52
2022-07-27T00:35:44.586Z,0.57
2022-07-27T00:40:47.281Z,0.65
2022-07-27T00:45:51.604Z,0.50
2022-07-27T00:50:54.562Z,0.40
2022-07-27T00:55:57.472Z,0.50
2022-07-27T01:01:01.731Z,0.57
2022-07-27T01:06:04.769Z,0.60
2022-07-27T01:11:09.942Z,0.45
2022-07-27T01:16:14.151Z,0.90
2022-07-27T01:21:17.077Z,0.57
2022-07-27T01:26:21.498Z,0.77
2022-07-27T01:31:24.274Z,0.80
2022-07-27T01:36:27.384Z,0.60
2022-07-27T01:41:31.592Z,0.65
2022-07-27T01:46:34.605Z,0.60
2022-07-27T01:51:37.485Z,0.80
2022-07-27T01:56:42.088Z,0.95
2022-07-27T02:01:45.194Z,0.77
2022-07-27T02:06:48.232Z,0.60
2022-07-27T02:12:09.834Z,0.85
2022-07-27T02:17:12.920Z,0.60
2022-07-27T02:22:18.130Z,0.77
2022-07-27T02:27:22.279Z,0.98
2022-07-27T02:32:25.063Z,0.68
2022-07-27T02:37:27.975Z,0.50
2022-07-27T02:42:32.112Z,0.77
2022-07-27T02:47:34.922Z,0.70
2022-07-27T02:52:38.052Z,1.88
2022-07-27T02:57:42.059Z,0.90
2022-07-27T03:02:49.416Z,0.75
2022-07-27T03:07:52.082Z,0.90
2022-07-27T03:12:56.071Z,0.95
2022-07-27T03:17:58.961Z,0.90
2022-07-27T03:23:01.862Z,0.85
2022-07-27T03:28:06.517Z,0.57
2022-07-27T03:33:09.279Z,0.73
2022-07-27T03:38:12.262Z,0.73
2022-07-27T03:43:16.385Z,0.85
2022-07-27T03:48:18.984Z,0.68
2022-07-27T03:53:22.059Z,1.02
2022-07-27T03:58:26.176Z,1.08
2022-07-27T04:03:28.903Z,0.45
2022-07-27T04:08:31.770Z,0.52
2022-07-27T04:13:38.170Z,0.52
2022-07-27T04:18:40.973Z,0.82
2022-07-27T04:23:44.271Z,0.80
2022-07-27T04:28:48.673Z,0.55
2022-07-27T04:33:51.610Z,0.70
2022-07-27T04:38:54.354Z,0.60
2022-07-27T04:43:58.713Z,0.60
2022-07-27T04:49:01.914Z,0.65
2022-07-27T04:54:05.026Z,0.70
2022-07-27T04:59:09.404Z,0.70
2022-07-27T05:04:12.398Z,0.70
2022-07-27T05:09:15.494Z,0.95
2022-07-27T05:14:26.606Z,0.47
2022-07-27T05:19:40.434Z,0.70
2022-07-27T05:24:43.629Z,0.55
2022-07-27T05:29:47.784Z,0.70
2022-07-27T05:34:50.731Z,0.60
2022-07-27T05:39:53.609Z,0.93
2022-07-27T05:44:57.805Z,0.80
2022-07-27T05:50:01.261Z,0.70
2022-07-27T05:55:04.099Z,0.70
2022-07-27T06:00:10.118Z,0.65
2022-07-27T06:05:17.432Z,0.70
2022-07-27T06:10:20.603Z,0.68
2022-07-27T06:15:25.151Z,0.60
2022-07-27T06:20:28.317Z,0.80
2022-07-27T06:25:35.713Z,0.82
2022-07-27T06:30:43.042Z,0.52
2022-07-27T06:35:45.689Z,0.57
2022-07-27T06:40:52.800Z,2.22
2022-07-27T06:45:58.196Z,1.30
2022-07-27T06:51:01.469Z,1.38
2022-07-27T06:56:05.313Z,0.68
2022-07-27T07:01:09.743Z,0.70
2022-07-27T07:06:12.513Z,0.80
2022-07-27T07:11:15.450Z,0.60
2022-07-27T07:16:19.607Z,0.55
2022-07-27T07:21:22.466Z,0.73
2022-07-27T07:26:25.424Z,0.60
2022-07-27T07:31:29.916Z,0.70
2022-07-27T07:36:33.012Z,0.70
2022-07-27T07:41:36.739Z,0.90
2022-07-27T07:46:45.283Z,0.90
2022-07-27T07:51:49.812Z,0.75
2022-07-27T07:56:52.485Z,0.70
2022-07-27T08:01:56.635Z,0.73
2022-07-27T08:06:59.342Z,0.65
2022-07-27T08:12:02.065Z,0.82
2022-07-27T08:17:06.153Z,0.70
2022-07-27T08:22:09.195Z,1.10
2022-07-27T08:27:12.215Z,0.80
2022-07-27T08:32:16.420Z,0.50
2022-07-27T08:37:19.344Z,0.60
2022-07-27T08:42:22.256Z,0.93
2022-07-27T08:47:26.925Z,0.70
2022-07-27T08:52:29.789Z,0.40
2022-07-27T08:57:32.652Z,0.68
2022-07-27T09:02:38.154Z,0.60
2022-07-27T09:07:41.041Z,0.50
2022-07-27T09:12:43.803Z,0.75
2022-07-27T09:17:49.753Z,0.60
2022-07-27T09:22:53.989Z,0.40
2022-07-27T09:27:58.598Z,0.60
2022-07-27T09:33:04.576Z,0.70
2022-07-27T09:38:25.438Z,0.68
2022-07-27T09:48:56.186Z,0.63
2022-07-27T09:54:01.490Z,0.50
2022-07-27T09:59:04.948Z,0.70
2022-07-27T10:04:09.789Z,0.57
2022-07-27T10:09:12.921Z,0.50
2022-07-27T10:14:16.345Z,0.60
2022-07-27T10:19:23.069Z,0.70
2022-07-27T10:24:28.816Z,0.38
2022-07-27T10:29:32.513Z,0.47
2022-07-27T10:34:38.482Z,0.38
2022-07-27T10:39:43.115Z,0.30
2022-07-27T10:45:07.477Z,0.30
2022-07-27T10:50:31.860Z,0.63
2022-07-27T10:55:51.511Z,0.30
2022-07-27T11:01:01.615Z,0.57
2022-07-27T11:06:31.430Z,0.40
2022-07-27T11:11:34.365Z,0.38
2022-07-27T11:16:54.898Z,0.90
2022-07-27T11:22:04.468Z,0.47
2022-07-27T11:27:16.386Z,0.40
2022-07-27T11:32:20.944Z,0.70
2022-07-27T11:37:25.163Z,0.47
2022-07-27T11:42:38.088Z,0.38
2022-07-27T11:47:41.844Z,0.60
2022-07-27T11:52:45.912Z,0.38
2022-07-27T11:57:48.666Z,1.20
2022-07-27T12:02:52.285Z,0.63
2022-07-27T12:07:56.466Z,0.60
2022-07-27T12:12:59.271Z,0.60
2022-07-27T12:18:02.216Z,0.68
2022-07-27T12:23:07.832Z,0.60
2022-07-27T12:28:12.860Z,0.68
2022-07-27T12:33:27.353Z,0.63
2022-07-27T12:38:39.740Z,0.60
2022-07-27T12:43:42.692Z,0.65
2022-07-27T12:48:45.564Z,0.43
2022-07-27T12:53:49.730Z,0.50
2022-07-27T12:59:00.246Z,0.60
2022-07-27T13:04:02.974Z,0.70
2022-07-27T13:09:07.012Z,0.70
2022-07-27T13:14:09.827Z,1.25
2022-07-27T13:19:14.286Z,0.50
2022-07-27T13:24:18.653Z,0.73
2022-07-27T13:29:21.789Z,0.60
2022-07-27T13:34:24.677Z,0.82
2022-07-27T13:39:29.766Z,0.65
2022-07-27T13:45:02.195Z,0.60
2022-07-27T13:49:59.968Z,1.05
2022-07-27T13:55:04.237Z,0.47
2022-07-27T14:00:12.149Z,0.40
2022-07-27T14:05:20.043Z,0.50
2022-07-27T14:10:39.560Z,0.75
2022-07-27T14:15:52.585Z,0.50
2022-07-27T14:20:59.683Z,0.60
2022-07-27T14:26:05.521Z,0.45
2022-07-27T14:31:10.150Z,0.52
2022-07-27T14:36:13.319Z,0.40
2022-07-27T14:41:17.426Z,1.05
2022-07-27T14:46:20.172Z,0.35
2022-07-27T14:51:22.957Z,0.57
2022-07-27T14:56:26.962Z,0.50
2022-07-27T15:01:29.862Z,0.50
2022-07-27T15:06:38.758Z,0.75
2022-07-27T15:11:43.220Z,0.57
2022-07-27T15:16:46.567Z,0.50
2022-07-27T15:21:49.507Z,0.50
2022-07-27T15:26:53.631Z,0.68
2022-07-27T15:31:56.634Z,0.45
2022-07-27T15:36:59.609Z,0.57
2022-07-27T15:42:03.753Z,0.50
2022-07-27T15:47:11.719Z,0.50
2022-07-27T15:52:14.548Z,0.47
2022-07-27T15:57:18.629Z,0.40
2022-07-27T16:02:24.771Z,0.40
2022-07-27T16:07:28.249Z,0.52
2022-07-27T16:12:44.909Z,0.68
2022-07-27T16:17:47.635Z,0.50
2022-07-27T16:22:51.175Z,0.60
2022-07-27T16:27:55.249Z,0.65
2022-07-27T16:32:58.022Z,0.60
2022-07-27T16:38:01.107Z,0.40
2022-07-27T16:43:05.291Z,0.60
2022-07-27T16:48:08.125Z,0.60
2022-07-27T16:53:10.825Z,0.57
2022-07-27T16:58:14.876Z,0.93
2022-07-27T17:03:17.604Z,0.50
2022-07-27T17:08:20.431Z,1.05
2022-07-27T17:13:34.240Z,0.40
2022-07-27T17:18:40.495Z,0.80
2022-07-27T17:23:43.916Z,0.47
2022-07-27T17:28:48.181Z,0.40
2022-07-27T17:33:52.429Z,0.70
2022-07-27T17:38:55.455Z,0.47
2022-07-27T17:43:59.745Z,0.57
2022-07-27T17:49:02.495Z,0.68
2022-07-27T17:54:05.610Z,1.15
2022-07-27T17:59:35.176Z,0.88
2022-07-27T18:04:38.919Z,0.60
2022-07-27T18:09:42.563Z,0.60
2022-07-27T18:15:00.558Z,0.70
2022-07-27T18:20:03.230Z,0.68
2022-07-27T18:25:07.167Z,0.70
2022-07-27T18:30:12.905Z,0.47
2022-07-27T18:35:15.730Z,0.57
2022-07-27T18:40:18.681Z,0.50
2022-07-27T18:45:22.772Z,0.57
2022-07-27T18:50:39.601Z,0.70
2022-07-27T18:55:42.616Z,0.68
2022-07-27T19:00:46.790Z,0.88
2022-07-27T19:05:50.898Z,0.50
2022-07-27T19:10:55.701Z,0.70
2022-07-27T19:16:00.827Z,0.75
2022-07-27T19:21:03.737Z,0.40
2022-07-27T19:26:06.935Z,0.70
2022-07-27T19:31:22.730Z,0.75
2022-07-27T19:36:26.431Z,0.70
2022-07-27T19:41:29.206Z,0.68
2022-07-27T19:46:33.541Z,0.50
2022-07-27T19:51:36.258Z,0.55
2022-07-27T19:56:39.043Z,0.70
2022-07-27T20:01:43.138Z,0.57
2022-07-27T20:06:45.915Z,0.60
2022-07-27T20:11:48.664Z,0.55
2022-07-27T20:16:56.222Z,1.00
2022-07-27T20:21:59.830Z,0.65
2022-07-27T20:27:02.574Z,0.80
2022-07-27T20:32:07.508Z,0.98
2022-07-27T20:37:10.221Z,0.90
2022-07-27T20:42:13.078Z,1.00
2022-07-27T20:47:17.175Z,1.15
2022-07-27T20:52:19.908Z,1.20
2022-07-27T20:57:22.621Z,2.28
2022-07-27T21:02:26.746Z,1.20
2022-07-27T21:07:29.463Z,1.20
2022-07-27T21:12:32.406Z,2.75
2022-07-27T21:17:36.507Z,2.25
2022-07-27T21:22:39.290Z,2.15
2022-07-27T21:27:42.023Z,1.98
2022-07-27T21:32:47.477Z,1.95
2022-07-27T21:37:50.424Z,1.85
2022-07-27T21:42:53.188Z,1.70
2022-07-27T21:47:57.376Z,1.55
2022-07-27T21:53:00.140Z,1.58
2022-07-27T21:58:02.886Z,1.60
2022-07-27T22:03:07.252Z,1.80
2022-07-27T22:08:09.964Z,1.30
2022-07-27T22:13:12.757Z,0.88
2022-07-27T22:18:20.498Z,0.93
2022-07-27T22:23:23.220Z,0.70
2022-07-27T22:28:26.330Z,0.90
2022-07-27T22:33:30.600Z,0.98
2022-07-27T22:38:33.344Z,0.85
2022-07-27T22:43:36.186Z,0.75
2022-07-27T22:48:40.361Z,0.60
2022-07-27T22:53:43.130Z,1.00
2022-07-27T22:58:46.306Z,0.90
2022-07-27T23:03:50.489Z,1.08
2022-07-27T23:08:53.164Z,0.82
2022-07-27T23:13:56.162Z,0.95
2022-07-27T23:19:00.339Z,0.80
2022-07-27T23:24:09.452Z,0.90
2022-07-27T23:29:12.695Z,0.90
2022-07-27T23:34:16.996Z,1.10
2022-07-27T23:39:19.779Z,0.88
2022-07-27T23:44:22.406Z,1.00
2022-07-27T23:49:26.597Z,1.10
2022-07-27T23:54:30.137Z,1.10
2022-07-27T23:59:32.822Z,0.85
